sensor_id;sensor_type;location;lat;lon;timestamp;P1;durP1;ratioP1;P2;durP2;ratioP2
10341;SDS011;5216;54.602;18.356;2024-01-25T00:01:40;12.03;;;4.47;;
10341;SDS011;5216;54.602;18.356;2024-01-25T00:04:06;12.53;;;3.83;;
10341;SDS011;5216;54.602;18.356;2024-01-25T00:06:34;14.90;;;4.20;;
10341;SDS011;5216;54.602;18.356;2024-01-25T00:09:01;14.40;;;4.37;;
10341;SDS011;5216;54.602;18.356;2024-01-25T00:11:30;10.77;;;3.53;;
10341;SDS011;5216;54.602;18.356;2024-01-25T00:13:58;11.50;;;3.93;;
10341;SDS011;5216;54.602;18.356;2024-01-25T00:16:24;9.93;;;3.50;;
10341;SDS011;5216;54.602;18.356;2024-01-25T00:18:51;11.40;;;4.77;;
10341;SDS011;5216;54.602;18.356;2024-01-25T00:21:18;10.27;;;3.80;;
10341;SDS011;5216;54.602;18.356;2024-01-25T00:23:45;13.27;;;3.70;;
10341;SDS011;5216;54.602;18.356;2024-01-25T00:26:12;10.43;;;4.47;;
10341;SDS011;5216;54.602;18.356;2024-01-25T00:28:39;10.83;;;3.90;;
10341;SDS011;5216;54.602;18.356;2024-01-25T00:31:06;10.47;;;3.73;;
10341;SDS011;5216;54.602;18.356;2024-01-25T00:33:32;11.77;;;3.70;;
10341;SDS011;5216;54.602;18.356;2024-01-25T00:35:59;9.83;;;3.70;;
10341;SDS011;5216;54.602;18.356;2024-01-25T00:38:26;11.40;;;4.23;;
10341;SDS011;5216;54.602;18.356;2024-01-25T00:40:53;11.67;;;3.97;;
10341;SDS011;5216;54.602;18.356;2024-01-25T00:43:20;10.80;;;3.63;;
10341;SDS011;5216;54.602;18.356;2024-01-25T00:45:47;11.87;;;3.50;;
10341;SDS011;5216;54.602;18.356;2024-01-25T00:48:15;12.00;;;4.23;;
10341;SDS011;5216;54.602;18.356;2024-01-25T00:50:42;11.80;;;4.57;;
10341;SDS011;5216;54.602;18.356;2024-01-25T00:53:09;14.50;;;4.83;;
10341;SDS011;5216;54.602;18.356;2024-01-25T00:55:36;15.60;;;4.33;;
10341;SDS011;5216;54.602;18.356;2024-01-25T00:58:03;14.77;;;4.53;;
10341;SDS011;5216;54.602;18.356;2024-01-25T01:00:30;13.93;;;4.20;;
10341;SDS011;5216;54.602;18.356;2024-01-25T01:03:00;20.17;;;5.00;;
10341;SDS011;5216;54.602;18.356;2024-01-25T01:05:30;14.73;;;4.83;;
10341;SDS011;5216;54.602;18.356;2024-01-25T01:07:58;13.10;;;4.13;;
10341;SDS011;5216;54.602;18.356;2024-01-25T01:10:25;14.50;;;4.70;;
10341;SDS011;5216;54.602;18.356;2024-01-25T01:12:54;15.37;;;4.43;;
10341;SDS011;5216;54.602;18.356;2024-01-25T01:15:21;12.73;;;4.20;;
10341;SDS011;5216;54.602;18.356;2024-01-25T01:17:47;17.80;;;4.83;;
10341;SDS011;5216;54.602;18.356;2024-01-25T01:20:20;16.63;;;4.67;;
10341;SDS011;5216;54.602;18.356;2024-01-25T01:22:47;15.13;;;4.90;;
10341;SDS011;5216;54.602;18.356;2024-01-25T01:25:13;16.33;;;4.70;;
10341;SDS011;5216;54.602;18.356;2024-01-25T01:27:40;19.73;;;5.77;;
10341;SDS011;5216;54.602;18.356;2024-01-25T01:30:07;17.70;;;5.40;;
10341;SDS011;5216;54.602;18.356;2024-01-25T01:32:34;19.07;;;5.90;;
10341;SDS011;5216;54.602;18.356;2024-01-25T01:35:01;17.83;;;5.33;;
10341;SDS011;5216;54.602;18.356;2024-01-25T01:37:28;18.40;;;5.50;;
10341;SDS011;5216;54.602;18.356;2024-01-25T01:39:55;19.53;;;5.27;;
10341;SDS011;5216;54.602;18.356;2024-01-25T01:42:22;17.90;;;5.53;;
10341;SDS011;5216;54.602;18.356;2024-01-25T01:44:49;19.43;;;5.63;;
10341;SDS011;5216;54.602;18.356;2024-01-25T01:47:18;15.53;;;4.97;;
10341;SDS011;5216;54.602;18.356;2024-01-25T01:49:46;18.00;;;5.47;;
10341;SDS011;5216;54.602;18.356;2024-01-25T01:52:14;23.87;;;6.27;;
10341;SDS011;5216;54.602;18.356;2024-01-25T01:54:47;19.83;;;6.17;;
10341;SDS011;5216;54.602;18.356;2024-01-25T01:57:17;22.37;;;5.90;;
10341;SDS011;5216;54.602;18.356;2024-01-25T01:59:44;18.23;;;5.77;;
10341;SDS011;5216;54.602;18.356;2024-01-25T02:02:12;22.63;;;5.53;;
10341;SDS011;5216;54.602;18.356;2024-01-25T02:04:42;16.30;;;5.37;;
10341;SDS011;5216;54.602;18.356;2024-01-25T02:07:13;20.27;;;5.90;;
10341;SDS011;5216;54.602;18.356;2024-01-25T02:09:41;17.73;;;5.47;;
10341;SDS011;5216;54.602;18.356;2024-01-25T02:12:07;15.83;;;5.10;;
10341;SDS011;5216;54.602;18.356;2024-01-25T02:14:34;18.77;;;5.63;;
10341;SDS011;5216;54.602;18.356;2024-01-25T02:17:03;18.20;;;5.10;;
10341;SDS011;5216;54.602;18.356;2024-01-25T02:19:30;19.10;;;4.63;;
10341;SDS011;5216;54.602;18.356;2024-01-25T02:21:57;15.67;;;5.30;;
10341;SDS011;5216;54.602;18.356;2024-01-25T02:24:25;17.87;;;5.53;;
10341;SDS011;5216;54.602;18.356;2024-01-25T02:26:53;16.77;;;5.00;;
10341;SDS011;5216;54.602;18.356;2024-01-25T02:29:20;20.87;;;5.83;;
10341;SDS011;5216;54.602;18.356;2024-01-25T02:31:47;19.23;;;5.00;;
10341;SDS011;5216;54.602;18.356;2024-01-25T02:34:14;16.27;;;4.87;;
10341;SDS011;5216;54.602;18.356;2024-01-25T02:36:41;17.73;;;4.77;;
10341;SDS011;5216;54.602;18.356;2024-01-25T02:39:08;17.30;;;5.13;;
10341;SDS011;5216;54.602;18.356;2024-01-25T02:41:35;19.20;;;5.60;;
10341;SDS011;5216;54.602;18.356;2024-01-25T02:44:04;17.77;;;5.93;;
10341;SDS011;5216;54.602;18.356;2024-01-25T02:46:31;16.63;;;5.20;;
10341;SDS011;5216;54.602;18.356;2024-01-25T02:48:57;19.60;;;5.50;;
10341;SDS011;5216;54.602;18.356;2024-01-25T02:51:24;19.30;;;5.37;;
10341;SDS011;5216;54.602;18.356;2024-01-25T02:53:51;20.90;;;5.37;;
10341;SDS011;5216;54.602;18.356;2024-01-25T02:56:18;17.20;;;5.00;;
10341;SDS011;5216;54.602;18.356;2024-01-25T02:58:44;18.50;;;5.23;;
10341;SDS011;5216;54.602;18.356;2024-01-25T03:01:11;18.07;;;4.97;;
10341;SDS011;5216;54.602;18.356;2024-01-25T03:03:38;18.97;;;5.00;;
10341;SDS011;5216;54.602;18.356;2024-01-25T03:06:05;13.00;;;4.13;;
10341;SDS011;5216;54.602;18.356;2024-01-25T03:08:33;17.40;;;4.80;;
10341;SDS011;5216;54.602;18.356;2024-01-25T03:10:59;17.77;;;5.00;;
10341;SDS011;5216;54.602;18.356;2024-01-25T03:13:26;17.47;;;4.43;;
10341;SDS011;5216;54.602;18.356;2024-01-25T03:15:53;15.07;;;4.23;;
10341;SDS011;5216;54.602;18.356;2024-01-25T03:18:20;13.70;;;4.03;;
10341;SDS011;5216;54.602;18.356;2024-01-25T03:20:47;17.40;;;4.27;;
10341;SDS011;5216;54.602;18.356;2024-01-25T03:23:17;17.37;;;4.30;;
10341;SDS011;5216;54.602;18.356;2024-01-25T03:25:43;16.57;;;4.40;;
10341;SDS011;5216;54.602;18.356;2024-01-25T03:28:10;15.30;;;4.93;;
10341;SDS011;5216;54.602;18.356;2024-01-25T03:30:39;14.57;;;4.27;;
10341;SDS011;5216;54.602;18.356;2024-01-25T03:33:06;15.67;;;4.17;;
10341;SDS011;5216;54.602;18.356;2024-01-25T03:35:33;19.37;;;4.30;;
10341;SDS011;5216;54.602;18.356;2024-01-25T03:38:00;12.70;;;3.77;;
10341;SDS011;5216;54.602;18.356;2024-01-25T03:40:27;16.60;;;4.10;;
10341;SDS011;5216;54.602;18.356;2024-01-25T03:42:54;13.23;;;3.70;;
10341;SDS011;5216;54.602;18.356;2024-01-25T03:45:40;11.70;;;3.63;;
10341;SDS011;5216;54.602;18.356;2024-01-25T03:48:07;14.37;;;3.80;;
10341;SDS011;5216;54.602;18.356;2024-01-25T03:50:34;14.17;;;4.20;;
10341;SDS011;5216;54.602;18.356;2024-01-25T03:53:00;12.13;;;3.73;;
10341;SDS011;5216;54.602;18.356;2024-01-25T03:55:27;13.13;;;3.80;;
10341;SDS011;5216;54.602;18.356;2024-01-25T03:57:54;14.37;;;3.97;;
10341;SDS011;5216;54.602;18.356;2024-01-25T04:00:21;11.37;;;3.93;;
10341;SDS011;5216;54.602;18.356;2024-01-25T04:02:49;11.27;;;3.30;;
10341;SDS011;5216;54.602;18.356;2024-01-25T04:05:16;15.07;;;4.13;;
10341;SDS011;5216;54.602;18.356;2024-01-25T04:07:43;11.10;;;3.57;;
10341;SDS011;5216;54.602;18.356;2024-01-25T04:10:10;14.60;;;3.90;;
10341;SDS011;5216;54.602;18.356;2024-01-25T04:12:37;15.40;;;4.80;;
10341;SDS011;5216;54.602;18.356;2024-01-25T04:15:03;16.37;;;4.77;;
10341;SDS011;5216;54.602;18.356;2024-01-25T04:17:31;18.60;;;5.07;;
10341;SDS011;5216;54.602;18.356;2024-01-25T04:19:57;15.47;;;4.73;;
10341;SDS011;5216;54.602;18.356;2024-01-25T04:22:24;17.80;;;4.60;;
10341;SDS011;5216;54.602;18.356;2024-01-25T04:24:51;14.23;;;4.10;;
10341;SDS011;5216;54.602;18.356;2024-01-25T04:27:18;10.20;;;3.50;;
10341;SDS011;5216;54.602;18.356;2024-01-25T04:29:45;12.60;;;3.27;;
10341;SDS011;5216;54.602;18.356;2024-01-25T04:32:12;11.43;;;3.57;;
10341;SDS011;5216;54.602;18.356;2024-01-25T04:34:39;11.53;;;3.37;;
10341;SDS011;5216;54.602;18.356;2024-01-25T04:37:06;8.73;;;2.80;;
10341;SDS011;5216;54.602;18.356;2024-01-25T04:39:32;11.33;;;3.00;;
10341;SDS011;5216;54.602;18.356;2024-01-25T04:41:59;8.57;;;2.70;;
10341;SDS011;5216;54.602;18.356;2024-01-25T04:44:26;6.77;;;2.23;;
10341;SDS011;5216;54.602;18.356;2024-01-25T04:46:52;7.23;;;2.47;;
10341;SDS011;5216;54.602;18.356;2024-01-25T04:49:20;7.93;;;2.33;;
10341;SDS011;5216;54.602;18.356;2024-01-25T04:51:47;5.87;;;2.27;;
10341;SDS011;5216;54.602;18.356;2024-01-25T04:54:14;8.97;;;2.50;;
10341;SDS011;5216;54.602;18.356;2024-01-25T04:56:42;12.03;;;3.30;;
10341;SDS011;5216;54.602;18.356;2024-01-25T04:59:10;7.70;;;2.73;;
10341;SDS011;5216;54.602;18.356;2024-01-25T05:01:37;13.37;;;2.90;;
10341;SDS011;5216;54.602;18.356;2024-01-25T05:04:04;10.07;;;3.00;;
10341;SDS011;5216;54.602;18.356;2024-01-25T05:06:31;11.93;;;3.00;;
10341;SDS011;5216;54.602;18.356;2024-01-25T05:08:58;12.80;;;3.83;;
10341;SDS011;5216;54.602;18.356;2024-01-25T05:11:25;9.70;;;3.10;;
10341;SDS011;5216;54.602;18.356;2024-01-25T05:13:52;12.33;;;4.07;;
10341;SDS011;5216;54.602;18.356;2024-01-25T05:16:18;7.47;;;3.07;;
10341;SDS011;5216;54.602;18.356;2024-01-25T05:18:45;7.30;;;2.57;;
10341;SDS011;5216;54.602;18.356;2024-01-25T05:21:12;7.67;;;2.50;;
10341;SDS011;5216;54.602;18.356;2024-01-25T05:23:39;10.53;;;2.77;;
10341;SDS011;5216;54.602;18.356;2024-01-25T05:26:06;6.80;;;2.20;;
10341;SDS011;5216;54.602;18.356;2024-01-25T05:28:33;6.17;;;2.43;;
10341;SDS011;5216;54.602;18.356;2024-01-25T05:30:59;10.47;;;3.03;;
10341;SDS011;5216;54.602;18.356;2024-01-25T05:33:30;8.80;;;3.10;;
10341;SDS011;5216;54.602;18.356;2024-01-25T05:35:57;9.80;;;2.90;;
10341;SDS011;5216;54.602;18.356;2024-01-25T05:38:24;9.70;;;3.20;;
10341;SDS011;5216;54.602;18.356;2024-01-25T05:40:50;7.50;;;2.90;;
10341;SDS011;5216;54.602;18.356;2024-01-25T05:43:17;8.77;;;2.80;;
10341;SDS011;5216;54.602;18.356;2024-01-25T05:45:44;9.20;;;3.23;;
10341;SDS011;5216;54.602;18.356;2024-01-25T05:48:12;11.00;;;3.30;;
10341;SDS011;5216;54.602;18.356;2024-01-25T05:50:38;10.43;;;2.90;;
10341;SDS011;5216;54.602;18.356;2024-01-25T05:53:05;10.07;;;3.57;;
10341;SDS011;5216;54.602;18.356;2024-01-25T05:55:32;10.60;;;3.10;;
10341;SDS011;5216;54.602;18.356;2024-01-25T05:57:59;11.33;;;3.40;;
10341;SDS011;5216;54.602;18.356;2024-01-25T06:00:25;11.90;;;3.20;;
10341;SDS011;5216;54.602;18.356;2024-01-25T06:02:52;10.93;;;3.17;;
10341;SDS011;5216;54.602;18.356;2024-01-25T06:05:19;11.97;;;3.40;;
10341;SDS011;5216;54.602;18.356;2024-01-25T06:07:46;11.30;;;3.30;;
10341;SDS011;5216;54.602;18.356;2024-01-25T06:10:15;10.87;;;3.40;;
10341;SDS011;5216;54.602;18.356;2024-01-25T06:12:42;12.13;;;3.60;;
10341;SDS011;5216;54.602;18.356;2024-01-25T06:15:09;13.47;;;3.23;;
10341;SDS011;5216;54.602;18.356;2024-01-25T06:17:36;9.17;;;2.80;;
10341;SDS011;5216;54.602;18.356;2024-01-25T06:20:02;7.90;;;2.60;;
10341;SDS011;5216;54.602;18.356;2024-01-25T06:22:30;9.67;;;2.77;;
10341;SDS011;5216;54.602;18.356;2024-01-25T06:24:57;9.53;;;3.00;;
10341;SDS011;5216;54.602;18.356;2024-01-25T06:27:23;5.80;;;2.20;;
10341;SDS011;5216;54.602;18.356;2024-01-25T06:29:50;7.77;;;2.77;;
10341;SDS011;5216;54.602;18.356;2024-01-25T06:32:17;5.93;;;2.27;;
10341;SDS011;5216;54.602;18.356;2024-01-25T06:34:52;4.60;;;2.00;;
10341;SDS011;5216;54.602;18.356;2024-01-25T06:37:20;6.63;;;2.10;;
10341;SDS011;5216;54.602;18.356;2024-01-25T06:39:47;7.40;;;2.70;;
10341;SDS011;5216;54.602;18.356;2024-01-25T06:42:14;6.77;;;2.50;;
10341;SDS011;5216;54.602;18.356;2024-01-25T06:44:41;6.40;;;2.43;;
10341;SDS011;5216;54.602;18.356;2024-01-25T06:47:07;5.20;;;2.10;;
10341;SDS011;5216;54.602;18.356;2024-01-25T06:49:34;3.20;;;1.40;;
10341;SDS011;5216;54.602;18.356;2024-01-25T06:52:01;2.43;;;1.20;;
10341;SDS011;5216;54.602;18.356;2024-01-25T06:54:28;3.03;;;1.47;;
10341;SDS011;5216;54.602;18.356;2024-01-25T06:56:54;2.00;;;1.27;;
10341;SDS011;5216;54.602;18.356;2024-01-25T06:59:22;2.10;;;1.00;;
10341;SDS011;5216;54.602;18.356;2024-01-25T07:01:50;1.73;;;1.30;;
10341;SDS011;5216;54.602;18.356;2024-01-25T07:04:20;2.50;;;1.40;;
10341;SDS011;5216;54.602;18.356;2024-01-25T07:06:47;2.43;;;2.00;;
10341;SDS011;5216;54.602;18.356;2024-01-25T07:09:14;2.17;;;1.83;;
10341;SDS011;5216;54.602;18.356;2024-01-25T07:11:41;2.23;;;1.90;;
10341;SDS011;5216;54.602;18.356;2024-01-25T07:14:08;2.23;;;1.70;;
10341;SDS011;5216;54.602;18.356;2024-01-25T07:16:35;2.10;;;1.90;;
10341;SDS011;5216;54.602;18.356;2024-01-25T07:19:02;2.10;;;1.60;;
10341;SDS011;5216;54.602;18.356;2024-01-25T07:21:29;2.20;;;1.30;;
10341;SDS011;5216;54.602;18.356;2024-01-25T07:23:59;1.50;;;1.33;;
10341;SDS011;5216;54.602;18.356;2024-01-25T07:26:27;1.03;;;0.93;;
10341;SDS011;5216;54.602;18.356;2024-01-25T07:28:54;2.27;;;0.90;;
10341;SDS011;5216;54.602;18.356;2024-01-25T07:31:27;1.93;;;0.90;;
10341;SDS011;5216;54.602;18.356;2024-01-25T07:33:54;1.30;;;1.20;;
10341;SDS011;5216;54.602;18.356;2024-01-25T07:36:24;2.73;;;2.53;;
10341;SDS011;5216;54.602;18.356;2024-01-25T07:38:51;6.37;;;5.77;;
10341;SDS011;5216;54.602;18.356;2024-01-25T07:41:17;1.63;;;1.00;;
10341;SDS011;5216;54.602;18.356;2024-01-25T07:43:44;1.23;;;0.77;;
10341;SDS011;5216;54.602;18.356;2024-01-25T07:46:11;2.17;;;1.30;;
10341;SDS011;5216;54.602;18.356;2024-01-25T07:48:41;3.03;;;1.93;;
10341;SDS011;5216;54.602;18.356;2024-01-25T07:51:12;1.93;;;1.40;;
10341;SDS011;5216;54.602;18.356;2024-01-25T07:53:40;2.07;;;1.47;;
10341;SDS011;5216;54.602;18.356;2024-01-25T07:56:07;1.43;;;1.20;;
10341;SDS011;5216;54.602;18.356;2024-01-25T07:58:35;3.17;;;1.00;;
10341;SDS011;5216;54.602;18.356;2024-01-25T08:01:05;1.47;;;0.70;;
10341;SDS011;5216;54.602;18.356;2024-01-25T08:03:32;2.30;;;0.90;;
10341;SDS011;5216;54.602;18.356;2024-01-25T08:06:01;1.87;;;1.60;;
10341;SDS011;5216;54.602;18.356;2024-01-25T08:08:29;3.43;;;1.40;;
10341;SDS011;5216;54.602;18.356;2024-01-25T08:10:56;1.23;;;1.10;;
10341;SDS011;5216;54.602;18.356;2024-01-25T08:13:23;7.00;;;5.00;;
10341;SDS011;5216;54.602;18.356;2024-01-25T08:15:50;2.03;;;1.20;;
10341;SDS011;5216;54.602;18.356;2024-01-25T08:18:18;2.13;;;1.50;;
10341;SDS011;5216;54.602;18.356;2024-01-25T08:20:45;2.17;;;1.27;;
10341;SDS011;5216;54.602;18.356;2024-01-25T08:23:13;1.97;;;1.30;;
10341;SDS011;5216;54.602;18.356;2024-01-25T08:25:41;1.67;;;1.27;;
10341;SDS011;5216;54.602;18.356;2024-01-25T08:28:08;1.63;;;1.00;;
10341;SDS011;5216;54.602;18.356;2024-01-25T08:30:35;1.63;;;1.00;;
10341;SDS011;5216;54.602;18.356;2024-01-25T08:33:02;1.47;;;0.93;;
10341;SDS011;5216;54.602;18.356;2024-01-25T08:35:30;1.47;;;0.90;;
10341;SDS011;5216;54.602;18.356;2024-01-25T08:37:57;2.33;;;1.27;;
10341;SDS011;5216;54.602;18.356;2024-01-25T08:40:24;2.17;;;1.40;;
10341;SDS011;5216;54.602;18.356;2024-01-25T08:42:55;2.20;;;1.10;;
10341;SDS011;5216;54.602;18.356;2024-01-25T08:45:21;1.57;;;1.00;;
10341;SDS011;5216;54.602;18.356;2024-01-25T08:47:48;0.90;;;0.87;;
10341;SDS011;5216;54.602;18.356;2024-01-25T08:50:17;2.47;;;1.50;;
10341;SDS011;5216;54.602;18.356;2024-01-25T08:52:44;2.53;;;1.30;;
10341;SDS011;5216;54.602;18.356;2024-01-25T08:55:11;3.27;;;0.93;;
10341;SDS011;5216;54.602;18.356;2024-01-25T08:57:38;1.87;;;1.37;;
10341;SDS011;5216;54.602;18.356;2024-01-25T09:00:07;1.90;;;1.30;;
10341;SDS011;5216;54.602;18.356;2024-01-25T09:02:37;1.73;;;1.10;;
10341;SDS011;5216;54.602;18.356;2024-01-25T09:05:05;2.37;;;1.27;;
10341;SDS011;5216;54.602;18.356;2024-01-25T09:07:32;1.60;;;1.10;;
10341;SDS011;5216;54.602;18.356;2024-01-25T09:09:59;2.97;;;2.10;;
10341;SDS011;5216;54.602;18.356;2024-01-25T09:12:26;4.60;;;2.77;;
10341;SDS011;5216;54.602;18.356;2024-01-25T09:14:53;3.20;;;2.23;;
10341;SDS011;5216;54.602;18.356;2024-01-25T09:17:20;2.30;;;1.80;;
10341;SDS011;5216;54.602;18.356;2024-01-25T09:19:49;2.57;;;1.77;;
10341;SDS011;5216;54.602;18.356;2024-01-25T09:22:18;3.50;;;2.50;;
10341;SDS011;5216;54.602;18.356;2024-01-25T09:24:46;1.70;;;1.47;;
10341;SDS011;5216;54.602;18.356;2024-01-25T09:27:13;2.13;;;1.53;;
10341;SDS011;5216;54.602;18.356;2024-01-25T09:29:40;2.13;;;1.53;;
10341;SDS011;5216;54.602;18.356;2024-01-25T09:32:08;2.20;;;1.40;;
10341;SDS011;5216;54.602;18.356;2024-01-25T09:34:36;3.07;;;2.33;;
10341;SDS011;5216;54.602;18.356;2024-01-25T09:37:06;2.23;;;1.50;;
10341;SDS011;5216;54.602;18.356;2024-01-25T09:39:34;2.33;;;1.50;;
10341;SDS011;5216;54.602;18.356;2024-01-25T09:42:03;2.13;;;1.40;;
10341;SDS011;5216;54.602;18.356;2024-01-25T09:44:30;1.70;;;1.23;;
10341;SDS011;5216;54.602;18.356;2024-01-25T09:46:58;1.90;;;1.40;;
10341;SDS011;5216;54.602;18.356;2024-01-25T09:49:28;3.10;;;2.10;;
10341;SDS011;5216;54.602;18.356;2024-01-25T09:51:56;2.27;;;1.47;;
10341;SDS011;5216;54.602;18.356;2024-01-25T09:54:24;2.73;;;1.13;;
10341;SDS011;5216;54.602;18.356;2024-01-25T09:56:52;2.73;;;1.70;;
10341;SDS011;5216;54.602;18.356;2024-01-25T09:59:20;2.37;;;1.10;;
10341;SDS011;5216;54.602;18.356;2024-01-25T10:01:48;2.37;;;1.40;;
10341;SDS011;5216;54.602;18.356;2024-01-25T10:04:15;2.43;;;1.30;;
10341;SDS011;5216;54.602;18.356;2024-01-25T10:06:46;2.00;;;1.40;;
10341;SDS011;5216;54.602;18.356;2024-01-25T10:09:13;2.37;;;1.50;;
10341;SDS011;5216;54.602;18.356;2024-01-25T10:11:40;2.20;;;1.60;;
10341;SDS011;5216;54.602;18.356;2024-01-25T10:14:16;3.73;;;1.57;;
10341;SDS011;5216;54.602;18.356;2024-01-25T10:16:42;1.93;;;1.40;;
10341;SDS011;5216;54.602;18.356;2024-01-25T10:19:11;2.67;;;1.50;;
10341;SDS011;5216;54.602;18.356;2024-01-25T10:21:40;2.43;;;1.27;;
10341;SDS011;5216;54.602;18.356;2024-01-25T10:24:09;2.20;;;1.47;;
10341;SDS011;5216;54.602;18.356;2024-01-25T10:26:36;1.97;;;1.30;;
10341;SDS011;5216;54.602;18.356;2024-01-25T10:29:03;2.10;;;1.43;;
10341;SDS011;5216;54.602;18.356;2024-01-25T10:31:32;1.80;;;1.03;;
10341;SDS011;5216;54.602;18.356;2024-01-25T10:34:08;1.83;;;1.30;;
10341;SDS011;5216;54.602;18.356;2024-01-25T10:36:40;2.50;;;1.20;;
10341;SDS011;5216;54.602;18.356;2024-01-25T10:39:07;1.33;;;0.90;;
10341;SDS011;5216;54.602;18.356;2024-01-25T10:41:35;2.33;;;1.00;;
10341;SDS011;5216;54.602;18.356;2024-01-25T10:44:01;6.93;;;1.60;;
10341;SDS011;5216;54.602;18.356;2024-01-25T10:46:29;1.63;;;0.97;;
10341;SDS011;5216;54.602;18.356;2024-01-25T10:48:57;2.30;;;1.07;;
10341;SDS011;5216;54.602;18.356;2024-01-25T10:51:26;1.30;;;1.03;;
10341;SDS011;5216;54.602;18.356;2024-01-25T10:53:54;1.33;;;0.80;;
10341;SDS011;5216;54.602;18.356;2024-01-25T10:56:21;2.17;;;1.40;;
10341;SDS011;5216;54.602;18.356;2024-01-25T10:58:48;3.37;;;2.10;;
10341;SDS011;5216;54.602;18.356;2024-01-25T11:01:16;1.40;;;1.23;;
10341;SDS011;5216;54.602;18.356;2024-01-25T11:03:47;1.17;;;1.07;;
10341;SDS011;5216;54.602;18.356;2024-01-25T11:06:14;1.93;;;1.30;;
10341;SDS011;5216;54.602;18.356;2024-01-25T11:08:42;1.70;;;0.83;;
10341;SDS011;5216;54.602;18.356;2024-01-25T11:11:10;1.83;;;1.00;;
10341;SDS011;5216;54.602;18.356;2024-01-25T11:13:42;1.03;;;0.93;;
10341;SDS011;5216;54.602;18.356;2024-01-25T11:16:16;1.60;;;1.10;;
10341;SDS011;5216;54.602;18.356;2024-01-25T11:18:51;1.50;;;1.03;;
10341;SDS011;5216;54.602;18.356;2024-01-25T11:21:26;1.10;;;0.93;;
10341;SDS011;5216;54.602;18.356;2024-01-25T11:24:04;1.23;;;1.00;;
10341;SDS011;5216;54.602;18.356;2024-01-25T11:26:32;1.77;;;1.00;;
10341;SDS011;5216;54.602;18.356;2024-01-25T11:28:59;1.47;;;0.90;;
10341;SDS011;5216;54.602;18.356;2024-01-25T11:31:28;2.23;;;1.20;;
10341;SDS011;5216;54.602;18.356;2024-01-25T11:33:57;0.90;;;0.70;;
10341;SDS011;5216;54.602;18.356;2024-01-25T11:36:25;1.80;;;1.20;;
10341;SDS011;5216;54.602;18.356;2024-01-25T11:38:52;2.00;;;0.93;;
10341;SDS011;5216;54.602;18.356;2024-01-25T11:41:19;1.53;;;0.83;;
10341;SDS011;5216;54.602;18.356;2024-01-25T11:43:50;1.93;;;1.03;;
10341;SDS011;5216;54.602;18.356;2024-01-25T11:46:17;0.87;;;0.73;;
10341;SDS011;5216;54.602;18.356;2024-01-25T11:48:44;1.70;;;1.20;;
10341;SDS011;5216;54.602;18.356;2024-01-25T11:51:11;1.87;;;1.00;;
10341;SDS011;5216;54.602;18.356;2024-01-25T11:53:38;1.87;;;1.00;;
10341;SDS011;5216;54.602;18.356;2024-01-25T11:56:06;1.97;;;0.80;;
10341;SDS011;5216;54.602;18.356;2024-01-25T11:58:39;2.37;;;1.33;;
10341;SDS011;5216;54.602;18.356;2024-01-25T12:01:08;1.90;;;1.00;;
10341;SDS011;5216;54.602;18.356;2024-01-25T12:03:36;1.77;;;0.80;;
10341;SDS011;5216;54.602;18.356;2024-01-25T12:06:03;1.80;;;0.90;;
10341;SDS011;5216;54.602;18.356;2024-01-25T12:08:32;1.80;;;0.90;;
10341;SDS011;5216;54.602;18.356;2024-01-25T12:11:06;2.40;;;1.10;;
10341;SDS011;5216;54.602;18.356;2024-01-25T12:13:35;1.77;;;1.00;;
10341;SDS011;5216;54.602;18.356;2024-01-25T12:16:02;1.43;;;1.00;;
10341;SDS011;5216;54.602;18.356;2024-01-25T12:18:30;1.60;;;0.90;;
10341;SDS011;5216;54.602;18.356;2024-01-25T12:20:59;3.40;;;1.17;;
10341;SDS011;5216;54.602;18.356;2024-01-25T12:23:38;1.10;;;0.83;;
10341;SDS011;5216;54.602;18.356;2024-01-25T12:26:09;0.90;;;0.83;;
10341;SDS011;5216;54.602;18.356;2024-01-25T12:28:40;2.37;;;1.60;;
10341;SDS011;5216;54.602;18.356;2024-01-25T12:31:07;1.90;;;1.20;;
10341;SDS011;5216;54.602;18.356;2024-01-25T12:33:35;2.40;;;0.90;;
10341;SDS011;5216;54.602;18.356;2024-01-25T12:36:02;0.93;;;0.80;;
10341;SDS011;5216;54.602;18.356;2024-01-25T12:38:30;1.17;;;0.70;;
10341;SDS011;5216;54.602;18.356;2024-01-25T12:41:00;2.30;;;1.00;;
10341;SDS011;5216;54.602;18.356;2024-01-25T12:43:28;1.40;;;1.00;;
10341;SDS011;5216;54.602;18.356;2024-01-25T12:45:56;1.53;;;1.10;;
10341;SDS011;5216;54.602;18.356;2024-01-25T12:48:34;1.47;;;1.10;;
10341;SDS011;5216;54.602;18.356;2024-01-25T12:51:01;2.23;;;1.10;;
10341;SDS011;5216;54.602;18.356;2024-01-25T12:53:28;1.80;;;0.90;;
10341;SDS011;5216;54.602;18.356;2024-01-25T12:55:55;1.63;;;0.90;;
10341;SDS011;5216;54.602;18.356;2024-01-25T12:58:22;1.30;;;0.90;;
10341;SDS011;5216;54.602;18.356;2024-01-25T13:00:49;1.70;;;0.83;;
10341;SDS011;5216;54.602;18.356;2024-01-25T13:03:15;1.40;;;1.10;;
10341;SDS011;5216;54.602;18.356;2024-01-25T13:05:42;1.80;;;0.87;;
10341;SDS011;5216;54.602;18.356;2024-01-25T13:08:09;1.37;;;0.97;;
10341;SDS011;5216;54.602;18.356;2024-01-25T13:10:36;1.10;;;0.80;;
10341;SDS011;5216;54.602;18.356;2024-01-25T13:13:03;1.77;;;1.10;;
10341;SDS011;5216;54.602;18.356;2024-01-25T13:15:29;2.20;;;1.10;;
10341;SDS011;5216;54.602;18.356;2024-01-25T13:17:56;2.27;;;0.90;;
10341;SDS011;5216;54.602;18.356;2024-01-25T13:20:23;1.37;;;1.00;;
10341;SDS011;5216;54.602;18.356;2024-01-25T13:22:50;1.33;;;1.13;;
10341;SDS011;5216;54.602;18.356;2024-01-25T13:25:17;2.23;;;1.20;;
10341;SDS011;5216;54.602;18.356;2024-01-25T13:27:44;1.60;;;0.83;;
10341;SDS011;5216;54.602;18.356;2024-01-25T13:30:11;1.03;;;0.80;;
10341;SDS011;5216;54.602;18.356;2024-01-25T13:32:41;2.00;;;0.80;;
10341;SDS011;5216;54.602;18.356;2024-01-25T13:35:08;1.60;;;1.13;;
10341;SDS011;5216;54.602;18.356;2024-01-25T13:37:35;2.33;;;1.20;;
10341;SDS011;5216;54.602;18.356;2024-01-25T13:40:02;1.40;;;1.03;;
10341;SDS011;5216;54.602;18.356;2024-01-25T13:42:30;2.53;;;1.30;;
10341;SDS011;5216;54.602;18.356;2024-01-25T13:44:57;2.50;;;1.70;;
10341;SDS011;5216;54.602;18.356;2024-01-25T13:47:27;2.13;;;1.30;;
10341;SDS011;5216;54.602;18.356;2024-01-25T13:49:59;2.67;;;1.17;;
10341;SDS011;5216;54.602;18.356;2024-01-25T13:52:26;1.83;;;1.23;;
10341;SDS011;5216;54.602;18.356;2024-01-25T13:54:53;1.47;;;1.07;;
10341;SDS011;5216;54.602;18.356;2024-01-25T13:57:21;3.00;;;1.43;;
10341;SDS011;5216;54.602;18.356;2024-01-25T13:59:50;1.57;;;1.13;;
10341;SDS011;5216;54.602;18.356;2024-01-25T14:02:23;1.37;;;1.20;;
10341;SDS011;5216;54.602;18.356;2024-01-25T14:04:50;1.33;;;1.10;;
10341;SDS011;5216;54.602;18.356;2024-01-25T14:07:30;1.87;;;1.30;;
10341;SDS011;5216;54.602;18.356;2024-01-25T14:09:58;2.60;;;1.23;;
10341;SDS011;5216;54.602;18.356;2024-01-25T14:12:26;1.50;;;1.00;;
10341;SDS011;5216;54.602;18.356;2024-01-25T14:14:53;1.50;;;1.10;;
10341;SDS011;5216;54.602;18.356;2024-01-25T14:17:20;1.77;;;1.33;;
10341;SDS011;5216;54.602;18.356;2024-01-25T14:19:50;3.33;;;1.80;;
10341;SDS011;5216;54.602;18.356;2024-01-25T14:22:17;4.07;;;2.90;;
10341;SDS011;5216;54.602;18.356;2024-01-25T14:24:57;5.63;;;3.97;;
10341;SDS011;5216;54.602;18.356;2024-01-25T14:27:24;3.27;;;2.63;;
10341;SDS011;5216;54.602;18.356;2024-01-25T14:29:51;4.63;;;3.63;;
10341;SDS011;5216;54.602;18.356;2024-01-25T14:32:20;2.77;;;2.30;;
10341;SDS011;5216;54.602;18.356;2024-01-25T14:34:48;2.67;;;1.80;;
10341;SDS011;5216;54.602;18.356;2024-01-25T14:37:16;4.20;;;3.03;;
10341;SDS011;5216;54.602;18.356;2024-01-25T14:39:42;4.40;;;3.10;;
10341;SDS011;5216;54.602;18.356;2024-01-25T14:42:26;2.90;;;2.50;;
10341;SDS011;5216;54.602;18.356;2024-01-25T14:44:53;2.37;;;1.63;;
10341;SDS011;5216;54.602;18.356;2024-01-25T14:47:20;2.07;;;1.40;;